createdAt,value
2022-08-21T00:02:17.469Z,14.88
2022-08-21T00:05:06.067Z,14.27
2022-08-21T00:07:54.310Z,12.27
2022-08-21T00:10:42.903Z,10.63
2022-08-21T00:13:31.071Z,12.13
2022-08-21T00:16:19.220Z,13.63
2022-08-21T00:19:08.699Z,14.75
2022-08-21T00:21:56.728Z,14.40
2022-08-21T00:24:44.759Z,13.50
2022-08-21T00:27:33.461Z,10.20
2022-08-21T00:30:24.066Z,16.52
2022-08-21T00:33:12.829Z,12.27
2022-08-21T00:36:01.381Z,10.45
2022-08-21T00:38:49.277Z,12.95
2022-08-21T00:41:39.830Z,11.10
2022-08-21T00:44:27.689Z,9.88
2022-08-21T00:47:15.633Z,8.82
2022-08-21T00:50:07.764Z,11.43
2022-08-21T00:53:01.544Z,10.30
2022-08-21T00:55:50.612Z,11.57
2022-08-21T00:58:42.736Z,15.70
2022-08-21T01:01:31.914Z,14.00
2022-08-21T01:04:21.367Z,10.20
2022-08-21T01:07:10.208Z,12.57
2022-08-21T01:09:58.301Z,17.02
2022-08-21T01:12:46.318Z,13.30
2022-08-21T01:15:39.847Z,12.55
2022-08-21T01:18:29.517Z,13.25
2022-08-21T01:21:27.807Z,14.88
2022-08-21T01:24:16.409Z,15.65
2022-08-21T01:27:07.631Z,14.50
2022-08-21T01:30:00.456Z,11.18
2022-08-21T01:32:49.841Z,9.70
2022-08-21T01:35:38.429Z,13.82
2022-08-21T01:38:26.509Z,14.75
2022-08-21T01:41:16.875Z,13.98
2022-08-21T01:44:05.034Z,12.20
2022-08-21T01:46:53.575Z,11.65
2022-08-21T01:49:42.688Z,12.10
2022-08-21T01:52:30.673Z,16.17
2022-08-21T01:55:20.245Z,11.52
2022-08-21T01:58:08.173Z,14.40
2022-08-21T02:00:56.121Z,11.77
2022-08-21T02:03:44.051Z,11.65
2022-08-21T02:06:32.052Z,13.88
2022-08-21T02:09:20.460Z,12.40
2022-08-21T02:12:08.518Z,14.57
2022-08-21T02:14:56.390Z,13.60
2022-08-21T02:17:49.929Z,13.68
2022-08-21T02:20:43.416Z,15.30
2022-08-21T02:23:31.517Z,12.45
2022-08-21T02:26:19.535Z,14.00
2022-08-21T02:29:07.729Z,11.95
2022-08-21T02:31:55.572Z,14.65
2022-08-21T02:34:43.524Z,12.00
2022-08-21T02:37:31.849Z,17.17
2022-08-21T02:40:24.366Z,11.23
2022-08-21T02:43:12.991Z,11.43
2022-08-21T02:46:01.379Z,10.18
2022-08-21T02:48:49.575Z,11.20
2022-08-21T02:51:37.469Z,10.23
2022-08-21T02:54:25.700Z,12.18
2022-08-21T02:57:13.556Z,11.40
2022-08-21T03:00:01.401Z,13.95
2022-08-21T03:02:50.023Z,12.43
2022-08-21T03:05:38.683Z,13.77
2022-08-21T03:08:27.739Z,13.55
2022-08-21T03:11:18.413Z,12.23
2022-08-21T03:14:06.343Z,14.43
2022-08-21T03:16:54.263Z,13.98
2022-08-21T03:19:43.335Z,15.43
2022-08-21T03:22:31.306Z,13.82
2022-08-21T03:25:21.378Z,28.90
2022-08-21T03:28:22.511Z,27.25
2022-08-21T03:31:10.402Z,38.92
2022-08-21T03:33:59.104Z,19.25
2022-08-21T03:36:47.036Z,14.80
2022-08-21T03:39:35.581Z,14.68
2022-08-21T03:42:24.249Z,11.23
2022-08-21T03:45:12.154Z,16.63
2022-08-21T03:48:03.808Z,17.65
2022-08-21T03:50:53.956Z,16.27
2022-08-21T03:53:41.921Z,19.15
2022-08-21T03:56:29.898Z,14.90
2022-08-21T03:59:17.748Z,16.35
2022-08-21T04:02:07.744Z,21.25
2022-08-21T04:04:55.570Z,19.02
2022-08-21T04:07:43.727Z,19.27
2022-08-21T04:10:37.560Z,15.15
2022-08-21T04:13:27.764Z,19.52
2022-08-21T04:16:15.599Z,17.40
2022-08-21T04:19:03.675Z,19.88
2022-08-21T04:21:52.640Z,18.25
2022-08-21T04:24:40.575Z,15.48
2022-08-21T04:27:28.434Z,18.55
2022-08-21T04:30:17.587Z,16.35
2022-08-21T04:33:05.579Z,14.07
2022-08-21T04:35:53.414Z,20.67
2022-08-21T04:38:43.224Z,16.63
2022-08-21T04:41:32.505Z,17.95
2022-08-21T04:44:20.524Z,16.65
2022-08-21T04:47:09.078Z,19.42
2022-08-21T04:49:56.906Z,18.95
2022-08-21T04:52:45.355Z,25.10
2022-08-21T04:55:33.439Z,20.92
2022-08-21T04:58:26.334Z,14.18
2022-08-21T05:01:20.578Z,15.15
2022-08-21T05:04:13.865Z,13.93
2022-08-21T05:07:05.489Z,21.73
2022-08-21T05:09:54.706Z,13.57
2022-08-21T05:12:44.072Z,20.33
2022-08-21T05:15:32.765Z,18.05
2022-08-21T05:18:20.750Z,17.42
2022-08-21T05:21:08.893Z,20.55
2022-08-21T05:23:56.700Z,36.38
2022-08-21T05:26:46.505Z,45.03
2022-08-21T05:29:35.402Z,20.90
2022-08-21T05:32:23.854Z,23.50
2022-08-21T05:35:12.253Z,23.38
2022-08-21T05:38:01.137Z,20.17
2022-08-21T05:40:49.256Z,17.95
2022-08-21T05:43:37.507Z,18.80
2022-08-21T05:46:25.583Z,15.07
2022-08-21T05:49:13.782Z,17.88
2022-08-21T05:52:02.311Z,22.08
2022-08-21T05:54:51.294Z,13.43
2022-08-21T05:57:41.867Z,14.55
2022-08-21T06:00:29.880Z,13.25
2022-08-21T06:03:22.280Z,18.00
2022-08-21T06:06:10.900Z,17.45
2022-08-21T06:08:58.765Z,15.63
2022-08-21T06:11:46.683Z,15.23
2022-08-21T06:14:34.537Z,18.13
2022-08-21T06:17:22.537Z,15.48
2022-08-21T06:20:11.007Z,15.00
2022-08-21T06:22:59.244Z,16.88
2022-08-21T06:25:47.314Z,13.68
2022-08-21T06:28:36.779Z,13.32
2022-08-21T06:31:27.777Z,18.80
2022-08-21T06:34:16.756Z,16.77
2022-08-21T06:37:05.162Z,19.40
2022-08-21T06:39:53.219Z,12.75
2022-08-21T06:42:42.707Z,16.27
2022-08-21T06:45:32.189Z,17.90
2022-08-21T06:48:20.641Z,16.02
2022-08-21T06:51:08.558Z,16.95
2022-08-21T06:53:56.858Z,15.23
2022-08-21T06:56:47.618Z,13.25
2022-08-21T06:59:35.820Z,17.27
2022-08-21T07:02:23.803Z,16.30
2022-08-21T07:05:18.450Z,15.45
2022-08-21T07:08:08.126Z,17.92
2022-08-21T07:11:01.184Z,10.90
2022-08-21T07:13:53.361Z,15.55
2022-08-21T07:16:43.329Z,16.70
2022-08-21T07:19:31.633Z,13.77
2022-08-21T07:22:23.920Z,13.65
2022-08-21T07:25:14.470Z,12.15
2022-08-21T07:28:04.087Z,13.35
2022-08-21T07:30:59.684Z,15.77
2022-08-21T07:33:52.131Z,14.02
2022-08-21T07:36:43.854Z,13.00
2022-08-21T07:39:32.436Z,16.77
2022-08-21T07:42:24.107Z,12.60
2022-08-21T07:45:17.106Z,12.75
2022-08-21T07:48:08.227Z,10.32
2022-08-21T07:51:00.877Z,10.82
2022-08-21T07:53:55.963Z,11.00
2022-08-21T07:56:48.585Z,12.93
2022-08-21T07:59:39.944Z,14.07
2022-08-21T08:02:32.957Z,10.98
2022-08-21T08:05:29.549Z,10.73
2022-08-21T08:08:20.978Z,10.25
2022-08-21T08:11:17.670Z,10.98
2022-08-21T08:14:09.632Z,13.57
2022-08-21T08:17:02.271Z,12.20
2022-08-21T08:19:53.555Z,11.25
2022-08-21T08:22:50.024Z,11.05
2022-08-21T08:25:42.665Z,14.32
2022-08-21T08:28:35.375Z,11.98
2022-08-21T08:31:26.667Z,12.88
2022-08-21T08:34:23.457Z,10.63
2022-08-21T08:37:17.389Z,11.15
2022-08-21T08:40:09.308Z,9.70
2022-08-21T08:43:01.472Z,14.10
2022-08-21T08:45:59.010Z,12.88
2022-08-21T08:49:24.730Z,8.00
2022-08-21T08:52:38.756Z,11.20
2022-08-21T08:55:41.182Z,11.80
2022-08-21T08:58:38.046Z,12.88
2022-08-21T09:01:29.788Z,9.57
2022-08-21T09:04:30.226Z,10.23
2022-08-21T09:07:58.364Z,12.68
2022-08-21T09:11:10.529Z,9.07
2022-08-21T09:14:10.242Z,11.63
2022-08-21T09:17:37.900Z,9.05
2022-08-21T09:21:10.925Z,8.00
2022-08-21T09:24:34.405Z,8.27
2022-08-21T09:27:24.909Z,7.05
2022-08-21T09:30:15.715Z,10.25
2022-08-21T09:33:04.179Z,12.23
2022-08-21T09:35:59.269Z,7.50
2022-08-21T09:38:57.691Z,9.68
2022-08-21T09:41:59.667Z,8.13
2022-08-21T09:45:16.852Z,10.05
2022-08-21T09:48:20.637Z,8.15
2022-08-21T09:51:17.254Z,7.13
2022-08-21T09:54:18.982Z,7.95
2022-08-21T09:57:46.333Z,8.70
2022-08-21T10:00:38.632Z,9.93
2022-08-21T10:03:30.571Z,9.95
2022-08-21T10:06:32.250Z,6.53
2022-08-21T10:09:25.901Z,8.65
2022-08-21T10:15:49.478Z,8.95
2022-08-21T10:19:08.146Z,8.02
2022-08-21T10:22:21.227Z,8.00
2022-08-21T10:25:56.289Z,7.50
2022-08-21T10:29:39.052Z,5.28
2022-08-21T10:33:14.243Z,8.10
2022-08-21T10:36:28.895Z,8.43
2022-08-21T10:39:45.716Z,5.97
2022-08-21T10:43:14.752Z,10.13
2022-08-21T10:46:17.866Z,12.30
2022-08-21T10:49:41.807Z,5.78
2022-08-21T10:53:03.633Z,6.40
2022-08-21T10:56:14.448Z,5.00
2022-08-21T10:59:26.613Z,6.22
2022-08-21T11:02:28.757Z,6.88
2022-08-21T11:05:38.168Z,4.72
2022-08-21T11:08:47.700Z,7.43
2022-08-21T11:11:55.256Z,11.52
2022-08-21T11:15:29.159Z,9.90
2022-08-21T11:18:33.944Z,8.05
2022-08-21T11:24:47.641Z,6.28
2022-08-21T11:28:00.211Z,5.85
2022-08-21T11:31:23.658Z,4.47
2022-08-21T11:34:51.113Z,6.55
2022-08-21T11:37:59.986Z,5.82
2022-08-21T11:41:34.026Z,8.90
2022-08-21T11:44:56.341Z,7.65
2022-08-21T11:48:18.148Z,6.97
2022-08-21T11:51:15.250Z,6.75
2022-08-21T11:54:47.515Z,6.30
2022-08-21T11:58:13.951Z,8.27
2022-08-21T12:01:34.969Z,7.75
2022-08-21T12:04:32.985Z,5.40
2022-08-21T12:07:43.694Z,8.85
2022-08-21T12:10:42.267Z,5.95
2022-08-21T12:13:42.097Z,5.45
2022-08-21T12:16:42.199Z,10.82
2022-08-21T12:19:36.494Z,9.02
2022-08-21T12:22:41.081Z,5.25
2022-08-21T12:26:01.682Z,6.30
2022-08-21T12:29:05.243Z,7.80
2022-08-21T12:32:10.855Z,6.22
2022-08-21T12:35:26.378Z,4.82
2022-08-21T12:38:31.823Z,6.53
2022-08-21T12:42:10.662Z,7.10
2022-08-21T12:45:08.061Z,6.05
2022-08-21T12:48:25.051Z,6.57
2022-08-21T12:51:48.715Z,4.63
2022-08-21T12:54:47.191Z,4.93
2022-08-21T12:57:43.973Z,7.45
2022-08-21T13:00:34.651Z,6.45
2022-08-21T13:03:27.558Z,6.35
2022-08-21T13:06:22.859Z,6.45
2022-08-21T13:09:24.287Z,6.57
2022-08-21T13:12:17.689Z,8.65
2022-08-21T13:15:09.143Z,3.95
2022-08-21T13:18:02.860Z,5.65
2022-08-21T13:21:03.875Z,6.40
2022-08-21T13:23:55.325Z,6.93
2022-08-21T13:26:47.036Z,7.30
2022-08-21T13:29:38.549Z,4.90
2022-08-21T13:32:34.305Z,6.72
2022-08-21T13:35:37.897Z,7.32
2022-08-21T13:38:32.971Z,9.60
2022-08-21T13:41:47.255Z,5.40
2022-08-21T13:44:47.788Z,5.40
2022-08-21T13:47:39.697Z,4.70
2022-08-21T13:50:33.527Z,6.15
2022-08-21T13:53:59.048Z,4.18
2022-08-21T13:56:51.016Z,3.88
2022-08-21T13:59:42.889Z,3.90
2022-08-21T14:02:45.482Z,6.60
2022-08-21T14:05:40.061Z,3.78
2022-08-21T14:08:36.704Z,4.55
2022-08-21T14:11:28.346Z,7.07
2022-08-21T14:14:33.754Z,4.43
2022-08-21T14:17:39.175Z,3.83
2022-08-21T14:20:35.443Z,6.35
2022-08-21T14:23:29.343Z,3.67
2022-08-21T14:29:16.458Z,4.80
2022-08-21T14:32:31.249Z,4.50
2022-08-21T14:35:24.594Z,4.05
2022-08-21T14:38:23.791Z,4.72
2022-08-21T14:41:24.778Z,4.90
2022-08-21T14:44:16.381Z,4.65
2022-08-21T14:47:08.791Z,3.50
2022-08-21T14:50:00.247Z,5.47
2022-08-21T14:52:48.990Z,6.18
2022-08-21T14:56:00.445Z,3.30
2022-08-21T14:58:52.859Z,5.38
2022-08-21T15:01:43.046Z,4.22
2022-08-21T15:04:35.966Z,6.57
2022-08-21T15:07:27.370Z,2.83
2022-08-21T15:10:20.320Z,5.90
2022-08-21T15:13:11.289Z,3.90
2022-08-21T15:16:02.496Z,3.95
2022-08-21T15:18:53.263Z,3.25
2022-08-21T15:21:45.287Z,6.40
2022-08-21T15:24:36.743Z,4.85
2022-08-21T15:27:28.731Z,4.05
2022-08-21T15:30:20.298Z,2.95
2022-08-21T15:33:11.014Z,6.45
2022-08-21T15:36:03.521Z,6.55
2022-08-21T15:38:53.811Z,5.47
2022-08-21T15:41:44.585Z,6.95
2022-08-21T15:44:37.102Z,4.38
2022-08-21T15:47:37.162Z,3.95
2022-08-21T15:50:28.646Z,5.03
2022-08-21T15:53:32.917Z,5.00
2022-08-21T15:56:36.588Z,5.18
2022-08-21T15:59:29.162Z,4.25
2022-08-21T16:02:31.085Z,5.00
2022-08-21T16:05:23.931Z,5.28
2022-08-21T16:08:15.916Z,4.65
2022-08-21T16:11:06.859Z,3.72
2022-08-21T16:14:00.179Z,4.38
2022-08-21T16:16:51.358Z,5.22
2022-08-21T16:19:44.641Z,6.10
2022-08-21T16:22:44.048Z,6.75
2022-08-21T16:25:40.803Z,5.88
2022-08-21T16:28:37.904Z,3.70
2022-08-21T16:31:31.778Z,9.43
2022-08-21T16:37:13.736Z,5.15
2022-08-21T16:40:10.711Z,5.57
2022-08-21T16:43:00.952Z,2.88
2022-08-21T16:45:54.229Z,4.50
2022-08-21T16:48:45.429Z,5.33
2022-08-21T16:51:38.270Z,2.47
2022-08-21T16:54:31.102Z,2.85
2022-08-21T16:57:24.374Z,4.00
2022-08-21T17:00:13.937Z,3.30
2022-08-21T17:03:05.916Z,4.45
2022-08-21T17:05:56.434Z,2.97
2022-08-21T17:08:47.974Z,3.55
2022-08-21T17:11:50.832Z,5.00
2022-08-21T17:14:41.955Z,6.38
2022-08-21T17:17:34.438Z,7.40
2022-08-21T17:20:26.241Z,6.32
2022-08-21T17:23:18.346Z,3.67
2022-08-21T17:26:08.965Z,5.00
2022-08-21T17:29:09.710Z,2.80
2022-08-21T17:32:00.726Z,3.25
2022-08-21T17:34:52.966Z,5.18
2022-08-21T17:37:45.946Z,2.00
2022-08-21T17:40:38.682Z,9.23
2022-08-21T17:43:29.680Z,4.43
2022-08-21T17:46:29.411Z,8.13
2022-08-21T17:49:19.244Z,6.38
2022-08-21T17:52:11.991Z,3.42
2022-08-21T17:55:03.171Z,7.50
2022-08-21T17:57:55.714Z,4.32
2022-08-21T18:00:47.638Z,7.13
2022-08-21T18:03:40.246Z,4.35
2022-08-21T18:06:33.147Z,5.63
2022-08-21T18:09:28.118Z,6.10
2022-08-21T18:12:19.175Z,4.10
2022-08-21T18:15:09.226Z,7.13
2022-08-21T18:18:02.556Z,2.95
2022-08-21T18:20:52.980Z,3.97
2022-08-21T18:23:45.260Z,2.55
2022-08-21T18:26:39.738Z,3.33
2022-08-21T18:29:31.412Z,2.75
2022-08-21T18:32:31.612Z,5.35
2022-08-21T18:35:22.227Z,6.03
2022-08-21T18:38:15.886Z,8.25
2022-08-21T18:41:10.329Z,4.50
2022-08-21T18:44:02.461Z,5.95
2022-08-21T18:47:02.785Z,4.30
2022-08-21T18:49:53.675Z,4.32
2022-08-21T18:52:52.904Z,4.10
2022-08-21T18:55:45.565Z,4.47
2022-08-21T18:58:36.402Z,5.80
2022-08-21T19:01:29.473Z,2.40
2022-08-21T19:04:43.148Z,2.70
2022-08-21T19:07:29.194Z,3.33
2022-08-21T19:10:28.818Z,34.78
2022-08-21T19:13:23.227Z,72.72
2022-08-21T19:16:19.962Z,43.30
2022-08-21T19:19:13.899Z,23.48
2022-08-21T19:22:05.665Z,42.20
2022-08-21T19:24:55.197Z,23.77
2022-08-21T19:27:45.874Z,12.48
2022-08-21T19:30:57.104Z,4.22
2022-08-21T19:34:13.759Z,4.30
2022-08-21T19:37:08.513Z,4.93
2022-08-21T19:39:59.985Z,5.00
2022-08-21T19:42:49.286Z,5.60
2022-08-21T19:45:38.944Z,4.70
2022-08-21T19:48:30.617Z,5.15
2022-08-21T19:51:20.890Z,6.50
2022-08-21T19:54:29.771Z,4.47
2022-08-21T19:57:20.592Z,5.25
2022-08-21T20:00:11.069Z,5.35
2022-08-21T20:02:59.284Z,5.05
2022-08-21T20:05:47.537Z,4.93
2022-08-21T20:08:36.023Z,4.28
2022-08-21T20:11:42.852Z,4.50
2022-08-21T20:14:32.760Z,4.25
2022-08-21T20:17:22.939Z,3.85
2022-08-21T20:20:12.431Z,3.95
2022-08-21T20:23:00.796Z,3.35
2022-08-21T20:26:00.213Z,3.20
2022-08-21T20:28:50.299Z,3.90
2022-08-21T20:31:38.640Z,3.42
2022-08-21T20:34:28.717Z,3.90
2022-08-21T20:40:32.047Z,4.13
2022-08-21T20:43:22.517Z,3.95
2022-08-21T20:46:10.623Z,5.53
2022-08-21T20:48:59.449Z,4.40
2022-08-21T20:51:52.268Z,4.22
2022-08-21T20:54:50.138Z,3.85
2022-08-21T20:58:05.261Z,3.58
2022-08-21T21:00:55.234Z,3.45
2022-08-21T21:03:52.689Z,4.85
2022-08-21T21:06:43.001Z,3.22
2022-08-21T21:09:44.375Z,4.07
2022-08-21T21:15:32.089Z,4.57
2022-08-21T21:18:32.974Z,6.10
2022-08-21T21:21:58.942Z,2.72
2022-08-21T21:25:00.930Z,3.70
2022-08-21T21:28:01.511Z,2.85
2022-08-21T21:30:57.580Z,3.67
2022-08-21T21:33:47.939Z,2.78
2022-08-21T21:36:58.129Z,3.63
2022-08-21T21:39:53.995Z,3.08
2022-08-21T21:43:19.974Z,4.93
2022-08-21T21:46:31.180Z,2.85
2022-08-21T21:53:36.813Z,3.50
2022-08-21T21:56:55.063Z,3.83
2022-08-21T21:59:48.751Z,5.15
2022-08-21T22:03:03.117Z,4.13
2022-08-21T22:06:08.555Z,6.28
2022-08-21T22:09:55.192Z,2.40
2022-08-21T22:13:10.109Z,3.78
2022-08-21T22:15:58.783Z,4.32
2022-08-21T22:19:06.613Z,2.80
2022-08-21T22:22:04.755Z,3.35
2022-08-21T22:25:05.027Z,3.30
2022-08-21T22:28:25.392Z,4.53
2022-08-21T22:31:21.104Z,2.45
2022-08-21T22:34:19.473Z,3.00
2022-08-21T22:37:11.816Z,3.20
2022-08-21T22:39:59.976Z,4.88
2022-08-21T22:43:14.761Z,3.30
2022-08-21T22:46:10.612Z,2.58
2022-08-21T22:49:15.578Z,5.22
2022-08-21T22:52:18.254Z,2.05
2022-08-21T22:55:32.124Z,4.72
2022-08-21T22:58:26.851Z,4.40
2022-08-21T23:01:20.846Z,4.18
2022-08-21T23:04:25.429Z,2.75
2022-08-21T23:07:31.578Z,5.00
2022-08-21T23:10:40.742Z,8.48
2022-08-21T23:13:38.927Z,3.90
2022-08-21T23:16:38.747Z,4.80
2022-08-21T23:20:00.387Z,5.07
2022-08-21T23:23:20.915Z,8.60
2022-08-21T23:26:27.106Z,4.47
2022-08-21T23:29:51.719Z,4.90
2022-08-21T23:33:17.624Z,4.75
2022-08-21T23:36:47.854Z,5.47
2022-08-21T23:39:51.660Z,2.47
2022-08-21T23:43:13.689Z,4.60
2022-08-21T23:46:16.842Z,4.35
2022-08-21T23:49:53.910Z,2.92
2022-08-21T23:52:54.976Z,2.67
2022-08-21T23:55:55.308Z,2.85
2022-08-21T23:59:11.121Z,3.33
